sensor_id;sensor_type;location;lat;lon;timestamp;pressure;altitude;pressure_sealevel;temperature;humidity
77192;BME280;66172;48.526;8.078;2024-01-30T00:02:11;100992.97;;;3.59;90.36
77192;BME280;66172;48.526;8.078;2024-01-30T00:04:37;100989.50;;;3.36;91.25
77192;BME280;66172;48.526;8.078;2024-01-30T00:07:03;101000.75;;;3.33;91.57
77192;BME280;66172;48.526;8.078;2024-01-30T00:09:29;100993.25;;;3.35;91.45
77192;BME280;66172;48.526;8.078;2024-01-30T00:11:55;100994.38;;;3.39;91.29
77192;BME280;66172;48.526;8.078;2024-01-30T00:14:22;101003.34;;;3.50;90.85
77192;BME280;66172;48.526;8.078;2024-01-30T00:16:48;101003.38;;;3.28;91.57
77192;BME280;66172;48.526;8.078;2024-01-30T00:19:14;100999.56;;;3.24;92.35
77192;BME280;66172;48.526;8.078;2024-01-30T00:21:40;101003.66;;;3.27;91.99
77192;BME280;66172;48.526;8.078;2024-01-30T00:24:06;100990.06;;;3.17;92.71
77192;BME280;66172;48.526;8.078;2024-01-30T00:26:33;101002.66;;;3.11;92.56
77192;BME280;66172;48.526;8.078;2024-01-30T00:28:59;101000.56;;;3.18;92.42
77192;BME280;66172;48.526;8.078;2024-01-30T00:31:25;100996.69;;;3.31;91.80
77192;BME280;66172;48.526;8.078;2024-01-30T00:33:51;101001.69;;;3.44;91.12
77192;BME280;66172;48.526;8.078;2024-01-30T00:36:17;100998.88;;;3.61;89.63
77192;BME280;66172;48.526;8.078;2024-01-30T00:38:42;100992.66;;;3.55;89.49
77192;BME280;66172;48.526;8.078;2024-01-30T00:41:08;101001.31;;;3.35;90.77
77192;BME280;66172;48.526;8.078;2024-01-30T00:43:35;100996.34;;;3.49;89.81
77192;BME280;66172;48.526;8.078;2024-01-30T00:46:01;101004.25;;;3.34;90.62
77192;BME280;66172;48.526;8.078;2024-01-30T00:48:27;100999.00;;;3.22;92.24
77192;BME280;66172;48.526;8.078;2024-01-30T00:50:53;100996.44;;;3.59;89.95
77192;BME280;66172;48.526;8.078;2024-01-30T00:53:19;100997.03;;;3.66;89.39
77192;BME280;66172;48.526;8.078;2024-01-30T00:55:45;101002.34;;;3.88;88.02
77192;BME280;66172;48.526;8.078;2024-01-30T00:58:11;100995.97;;;3.94;87.60
77192;BME280;66172;48.526;8.078;2024-01-30T01:00:37;101002.34;;;3.83;88.20
77192;BME280;66172;48.526;8.078;2024-01-30T01:03:03;100998.00;;;3.82;87.72
77192;BME280;66172;48.526;8.078;2024-01-30T01:05:29;100996.69;;;3.84;87.77
77192;BME280;66172;48.526;8.078;2024-01-30T01:07:55;100998.38;;;3.90;87.47
77192;BME280;66172;48.526;8.078;2024-01-30T01:10:21;100992.69;;;3.87;87.16
77192;BME280;66172;48.526;8.078;2024-01-30T01:12:48;101000.78;;;3.92;87.22
77192;BME280;66172;48.526;8.078;2024-01-30T01:15:14;101002.44;;;3.98;87.01
77192;BME280;66172;48.526;8.078;2024-01-30T01:17:40;101006.75;;;3.94;86.86
77192;BME280;66172;48.526;8.078;2024-01-30T01:20:07;101008.84;;;3.92;87.38
77192;BME280;66172;48.526;8.078;2024-01-30T01:22:34;101002.41;;;3.93;86.90
77192;BME280;66172;48.526;8.078;2024-01-30T01:25:00;101004.75;;;3.84;87.36
77192;BME280;66172;48.526;8.078;2024-01-30T01:27:26;100996.88;;;3.78;87.49
77192;BME280;66172;48.526;8.078;2024-01-30T01:29:53;100996.53;;;3.96;87.27
77192;BME280;66172;48.526;8.078;2024-01-30T01:32:19;100998.53;;;3.79;87.88
77192;BME280;66172;48.526;8.078;2024-01-30T01:34:45;101003.00;;;4.00;87.26
77192;BME280;66172;48.526;8.078;2024-01-30T01:37:11;100991.44;;;3.99;86.94
77192;BME280;66172;48.526;8.078;2024-01-30T01:39:37;100993.88;;;4.01;86.86
77192;BME280;66172;48.526;8.078;2024-01-30T01:42:03;100997.06;;;3.98;86.93
77192;BME280;66172;48.526;8.078;2024-01-30T01:44:30;100991.72;;;4.03;86.48
77192;BME280;66172;48.526;8.078;2024-01-30T01:46:56;100994.47;;;4.08;85.75
77192;BME280;66172;48.526;8.078;2024-01-30T01:49:24;100992.38;;;3.83;86.47
77192;BME280;66172;48.526;8.078;2024-01-30T01:51:53;100993.81;;;3.37;89.97
77192;BME280;66172;48.526;8.078;2024-01-30T01:54:20;100982.59;;;3.45;89.78
77192;BME280;66172;48.526;8.078;2024-01-30T01:56:46;100994.00;;;3.58;89.06
77192;BME280;66172;48.526;8.078;2024-01-30T01:59:12;100998.38;;;3.64;88.54
77192;BME280;66172;48.526;8.078;2024-01-30T02:01:38;100989.88;;;3.77;87.72
77192;BME280;66172;48.526;8.078;2024-01-30T02:04:04;100996.22;;;3.39;89.97
77192;BME280;66172;48.526;8.078;2024-01-30T02:06:32;100996.81;;;3.41;90.21
77192;BME280;66172;48.526;8.078;2024-01-30T02:08:58;100986.66;;;3.48;90.19
77192;BME280;66172;48.526;8.078;2024-01-30T02:11:24;101002.69;;;3.65;89.20
77192;BME280;66172;48.526;8.078;2024-01-30T02:13:50;100991.13;;;3.64;88.80
77192;BME280;66172;48.526;8.078;2024-01-30T02:16:16;100993.25;;;3.62;88.49
77192;BME280;66172;48.526;8.078;2024-01-30T02:18:45;101003.00;;;3.68;88.24
77192;BME280;66172;48.526;8.078;2024-01-30T02:21:18;100984.78;;;3.75;87.91
77192;BME280;66172;48.526;8.078;2024-01-30T02:23:46;100995.88;;;3.84;87.72
77192;BME280;66172;48.526;8.078;2024-01-30T02:26:12;100992.88;;;3.80;87.06
77192;BME280;66172;48.526;8.078;2024-01-30T02:28:38;100999.38;;;3.84;87.98
77192;BME280;66172;48.526;8.078;2024-01-30T02:31:05;100997.16;;;3.76;87.64
77192;BME280;66172;48.526;8.078;2024-01-30T02:33:31;100992.72;;;3.38;89.72
77192;BME280;66172;48.526;8.078;2024-01-30T02:35:57;101000.78;;;3.38;91.04
77192;BME280;66172;48.526;8.078;2024-01-30T02:38:22;100996.94;;;3.56;90.23
77192;BME280;66172;48.526;8.078;2024-01-30T02:40:49;100998.41;;;3.42;90.33
77192;BME280;66172;48.526;8.078;2024-01-30T02:43:16;100993.09;;;3.47;90.15
77192;BME280;66172;48.526;8.078;2024-01-30T02:45:42;100998.31;;;3.32;91.07
77192;BME280;66172;48.526;8.078;2024-01-30T02:48:08;101000.78;;;3.12;92.10
77192;BME280;66172;48.526;8.078;2024-01-30T02:50:34;100994.78;;;3.05;92.93
77192;BME280;66172;48.526;8.078;2024-01-30T02:52:59;101001.72;;;3.00;93.19
77192;BME280;66172;48.526;8.078;2024-01-30T02:55:25;100998.94;;;3.17;92.21
77192;BME280;66172;48.526;8.078;2024-01-30T02:57:51;100990.50;;;3.30;92.00
77192;BME280;66172;48.526;8.078;2024-01-30T03:00:18;100990.22;;;3.05;92.98
77192;BME280;66172;48.526;8.078;2024-01-30T03:02:45;100986.78;;;2.88;93.65
77192;BME280;66172;48.526;8.078;2024-01-30T03:05:11;100991.41;;;2.71;94.77
77192;BME280;66172;48.526;8.078;2024-01-30T03:07:37;100995.56;;;2.62;95.84
77192;BME280;66172;48.526;8.078;2024-01-30T03:10:04;100991.09;;;2.67;96.04
77192;BME280;66172;48.526;8.078;2024-01-30T03:12:32;100990.22;;;2.83;95.48
77192;BME280;66172;48.526;8.078;2024-01-30T03:14:57;100995.94;;;3.14;93.76
77192;BME280;66172;48.526;8.078;2024-01-30T03:17:23;100987.06;;;3.13;92.99
77192;BME280;66172;48.526;8.078;2024-01-30T03:19:50;100996.09;;;3.02;93.61
77192;BME280;66172;48.526;8.078;2024-01-30T03:22:16;100986.09;;;2.97;93.39
77192;BME280;66172;48.526;8.078;2024-01-30T03:24:42;100990.41;;;2.98;93.27
77192;BME280;66172;48.526;8.078;2024-01-30T03:27:08;100989.97;;;2.85;94.56
77192;BME280;66172;48.526;8.078;2024-01-30T03:29:34;100991.06;;;2.89;94.13
77192;BME280;66172;48.526;8.078;2024-01-30T03:32:00;100995.41;;;2.90;93.86
77192;BME280;66172;48.526;8.078;2024-01-30T03:34:26;100993.91;;;2.99;93.73
77192;BME280;66172;48.526;8.078;2024-01-30T03:36:52;100990.75;;;3.29;92.14
77192;BME280;66172;48.526;8.078;2024-01-30T03:39:18;101001.00;;;3.32;91.58
77192;BME280;66172;48.526;8.078;2024-01-30T03:41:44;100999.41;;;3.58;90.63
77192;BME280;66172;48.526;8.078;2024-01-30T03:44:10;100997.75;;;3.57;89.94
77192;BME280;66172;48.526;8.078;2024-01-30T03:46:36;100999.94;;;3.60;89.92
77192;BME280;66172;48.526;8.078;2024-01-30T03:49:02;101006.50;;;3.69;89.50
77192;BME280;66172;48.526;8.078;2024-01-30T03:51:28;101003.00;;;3.68;89.06
77192;BME280;66172;48.526;8.078;2024-01-30T03:53:54;101004.50;;;3.86;88.33
77192;BME280;66172;48.526;8.078;2024-01-30T03:56:20;100997.63;;;3.68;88.95
77192;BME280;66172;48.526;8.078;2024-01-30T03:58:46;101005.97;;;3.45;90.07
77192;BME280;66172;48.526;8.078;2024-01-30T04:01:15;101004.09;;;3.19;92.04
77192;BME280;66172;48.526;8.078;2024-01-30T04:03:41;101000.66;;;3.23;91.56
77192;BME280;66172;48.526;8.078;2024-01-30T04:06:08;101013.81;;;3.03;92.58
77192;BME280;66172;48.526;8.078;2024-01-30T04:08:34;101004.94;;;3.24;92.49
77192;BME280;66172;48.526;8.078;2024-01-30T04:11:04;100998.28;;;3.53;90.38
77192;BME280;66172;48.526;8.078;2024-01-30T04:13:32;101005.19;;;3.44;90.39
77192;BME280;66172;48.526;8.078;2024-01-30T04:15:59;101008.13;;;3.43;90.53
77192;BME280;66172;48.526;8.078;2024-01-30T04:18:27;101007.06;;;3.44;90.20
77192;BME280;66172;48.526;8.078;2024-01-30T04:20:53;100999.22;;;3.42;91.08
77192;BME280;66172;48.526;8.078;2024-01-30T04:23:19;101006.28;;;3.48;89.99
77192;BME280;66172;48.526;8.078;2024-01-30T04:25:45;101002.22;;;3.19;92.05
77192;BME280;66172;48.526;8.078;2024-01-30T04:28:11;101005.44;;;2.99;93.28
77192;BME280;66172;48.526;8.078;2024-01-30T04:30:38;100995.09;;;2.86;94.12
77192;BME280;66172;48.526;8.078;2024-01-30T04:33:04;100995.19;;;2.96;93.71
77192;BME280;66172;48.526;8.078;2024-01-30T04:35:30;100992.22;;;2.93;94.58
77192;BME280;66172;48.526;8.078;2024-01-30T04:37:56;100997.56;;;2.93;94.52
77192;BME280;66172;48.526;8.078;2024-01-30T04:40:22;100998.50;;;3.03;94.24
77192;BME280;66172;48.526;8.078;2024-01-30T04:42:48;100993.84;;;2.94;94.21
77192;BME280;66172;48.526;8.078;2024-01-30T04:45:14;100998.59;;;2.87;94.65
77192;BME280;66172;48.526;8.078;2024-01-30T04:47:40;100999.78;;;2.74;95.25
77192;BME280;66172;48.526;8.078;2024-01-30T04:50:07;100997.19;;;2.63;96.03
77192;BME280;66172;48.526;8.078;2024-01-30T04:52:33;100995.97;;;2.53;95.96
77192;BME280;66172;48.526;8.078;2024-01-30T04:54:59;101006.06;;;2.46;97.11
77192;BME280;66172;48.526;8.078;2024-01-30T04:57:24;101002.75;;;2.56;97.36
77192;BME280;66172;48.526;8.078;2024-01-30T04:59:50;101010.34;;;2.64;97.37
77192;BME280;66172;48.526;8.078;2024-01-30T05:02:16;101001.44;;;2.59;97.15
77192;BME280;66172;48.526;8.078;2024-01-30T05:04:42;101009.16;;;2.55;97.17
77192;BME280;66172;48.526;8.078;2024-01-30T05:07:08;101009.31;;;2.65;97.18
77192;BME280;66172;48.526;8.078;2024-01-30T05:09:34;101010.66;;;2.68;96.73
77192;BME280;66172;48.526;8.078;2024-01-30T05:12:00;101012.31;;;2.69;96.73
77192;BME280;66172;48.526;8.078;2024-01-30T05:14:26;101022.13;;;2.80;96.12
77192;BME280;66172;48.526;8.078;2024-01-30T05:16:52;101009.41;;;2.92;95.09
77192;BME280;66172;48.526;8.078;2024-01-30T05:19:17;101008.00;;;3.11;93.26
77192;BME280;66172;48.526;8.078;2024-01-30T05:21:43;101012.56;;;3.11;93.00
77192;BME280;66172;48.526;8.078;2024-01-30T05:24:10;101011.22;;;3.08;93.39
77192;BME280;66172;48.526;8.078;2024-01-30T05:26:36;101008.41;;;2.98;93.78
77192;BME280;66172;48.526;8.078;2024-01-30T05:29:02;101008.78;;;2.85;94.96
77192;BME280;66172;48.526;8.078;2024-01-30T05:31:28;101017.81;;;2.79;95.61
77192;BME280;66172;48.526;8.078;2024-01-30T05:33:54;101016.81;;;2.63;96.17
77192;BME280;66172;48.526;8.078;2024-01-30T05:36:20;101016.72;;;2.58;96.90
77192;BME280;66172;48.526;8.078;2024-01-30T05:38:47;101019.41;;;2.58;97.04
77192;BME280;66172;48.526;8.078;2024-01-30T05:41:13;101025.81;;;2.57;97.07
77192;BME280;66172;48.526;8.078;2024-01-30T05:43:39;101031.00;;;2.80;95.68
77192;BME280;66172;48.526;8.078;2024-01-30T05:46:06;101030.59;;;2.72;96.06
77192;BME280;66172;48.526;8.078;2024-01-30T05:48:32;101028.31;;;2.80;96.15
77192;BME280;66172;48.526;8.078;2024-01-30T05:50:58;101028.34;;;3.02;94.98
77192;BME280;66172;48.526;8.078;2024-01-30T05:53:25;101032.47;;;3.10;93.99
77192;BME280;66172;48.526;8.078;2024-01-30T05:55:51;101033.53;;;3.09;93.89
77192;BME280;66172;48.526;8.078;2024-01-30T05:58:17;101038.75;;;3.20;92.68
77192;BME280;66172;48.526;8.078;2024-01-30T06:00:43;101035.59;;;3.01;94.04
77192;BME280;66172;48.526;8.078;2024-01-30T06:03:09;101033.28;;;2.88;94.83
77192;BME280;66172;48.526;8.078;2024-01-30T06:05:34;101028.53;;;2.95;94.53
77192;BME280;66172;48.526;8.078;2024-01-30T06:08:02;101026.63;;;3.18;93.43
77192;BME280;66172;48.526;8.078;2024-01-30T06:10:28;101032.84;;;3.45;91.48
77192;BME280;66172;48.526;8.078;2024-01-30T06:12:53;101023.31;;;3.11;93.03
77192;BME280;66172;48.526;8.078;2024-01-30T06:15:19;101023.91;;;3.13;93.74
77192;BME280;66172;48.526;8.078;2024-01-30T06:17:46;101019.19;;;3.03;94.36
77192;BME280;66172;48.526;8.078;2024-01-30T06:20:12;101025.56;;;2.97;94.68
77192;BME280;66172;48.526;8.078;2024-01-30T06:22:38;101023.31;;;2.89;94.82
77192;BME280;66172;48.526;8.078;2024-01-30T06:25:04;101023.50;;;2.82;94.56
77192;BME280;66172;48.526;8.078;2024-01-30T06:27:30;101017.78;;;2.95;94.71
77192;BME280;66172;48.526;8.078;2024-01-30T06:29:56;101022.53;;;2.88;94.43
77192;BME280;66172;48.526;8.078;2024-01-30T06:32:22;101027.59;;;2.85;95.03
77192;BME280;66172;48.526;8.078;2024-01-30T06:34:47;101025.56;;;2.75;95.42
77192;BME280;66172;48.526;8.078;2024-01-30T06:37:13;101030.25;;;2.85;94.70
77192;BME280;66172;48.526;8.078;2024-01-30T06:39:39;101027.72;;;2.95;95.03
77192;BME280;66172;48.526;8.078;2024-01-30T06:42:05;101028.69;;;3.11;94.06
77192;BME280;66172;48.526;8.078;2024-01-30T06:44:31;101028.16;;;3.09;93.83
77192;BME280;66172;48.526;8.078;2024-01-30T06:46:57;101022.47;;;3.05;94.30
77192;BME280;66172;48.526;8.078;2024-01-30T06:49:23;101025.50;;;3.14;93.37
77192;BME280;66172;48.526;8.078;2024-01-30T06:51:49;101027.22;;;3.20;93.75
77192;BME280;66172;48.526;8.078;2024-01-30T06:54:14;101024.06;;;3.28;93.58
77192;BME280;66172;48.526;8.078;2024-01-30T06:56:40;101025.00;;;3.38;93.07
77192;BME280;66172;48.526;8.078;2024-01-30T06:59:06;101030.16;;;3.45;92.50
77192;BME280;66172;48.526;8.078;2024-01-30T07:01:32;101027.34;;;3.57;91.21
77192;BME280;66172;48.526;8.078;2024-01-30T07:03:58;101026.38;;;3.68;90.85
77192;BME280;66172;48.526;8.078;2024-01-30T07:06:24;101019.78;;;3.80;89.16
77192;BME280;66172;48.526;8.078;2024-01-30T07:08:50;101018.38;;;3.73;89.21
77192;BME280;66172;48.526;8.078;2024-01-30T07:11:19;101024.31;;;3.75;89.65
77192;BME280;66172;48.526;8.078;2024-01-30T07:13:47;101025.22;;;3.85;89.47
77192;BME280;66172;48.526;8.078;2024-01-30T07:16:14;101020.97;;;3.94;88.33
77192;BME280;66172;48.526;8.078;2024-01-30T07:18:40;101028.81;;;3.96;88.18
77192;BME280;66172;48.526;8.078;2024-01-30T07:21:06;101015.50;;;4.11;86.82
77192;BME280;66172;48.526;8.078;2024-01-30T07:23:32;101027.84;;;4.12;86.84
77192;BME280;66172;48.526;8.078;2024-01-30T07:26:00;101018.50;;;4.20;87.03
77192;BME280;66172;48.526;8.078;2024-01-30T07:28:26;101027.91;;;4.17;86.72
77192;BME280;66172;48.526;8.078;2024-01-30T07:30:52;101024.16;;;4.18;86.80
77192;BME280;66172;48.526;8.078;2024-01-30T07:33:18;101035.81;;;4.29;86.88
77192;BME280;66172;48.526;8.078;2024-01-30T07:35:45;101029.31;;;4.62;84.51
77192;BME280;66172;48.526;8.078;2024-01-30T07:38:11;101030.69;;;4.64;83.48
77192;BME280;66172;48.526;8.078;2024-01-30T07:40:37;101024.19;;;4.60;84.43
77192;BME280;66172;48.526;8.078;2024-01-30T07:43:03;101036.13;;;4.74;83.58
77192;BME280;66172;48.526;8.078;2024-01-30T07:45:29;101041.81;;;4.83;82.89
77192;BME280;66172;48.526;8.078;2024-01-30T07:47:58;101044.16;;;5.21;80.75
77192;BME280;66172;48.526;8.078;2024-01-30T07:50:25;101040.94;;;5.24;80.22
77192;BME280;66172;48.526;8.078;2024-01-30T07:52:51;101036.97;;;5.37;80.07
77192;BME280;66172;48.526;8.078;2024-01-30T07:55:20;101039.16;;;5.60;79.50
77192;BME280;66172;48.526;8.078;2024-01-30T07:57:51;101048.19;;;6.06;77.14
77192;BME280;66172;48.526;8.078;2024-01-30T08:00:21;101054.13;;;5.93;77.77
77192;BME280;66172;48.526;8.078;2024-01-30T08:02:47;101054.34;;;5.81;78.43
77192;BME280;66172;48.526;8.078;2024-01-30T08:05:14;101054.06;;;5.78;78.47
77192;BME280;66172;48.526;8.078;2024-01-30T08:07:43;101063.47;;;5.70;78.37
77192;BME280;66172;48.526;8.078;2024-01-30T08:10:11;101062.47;;;5.86;78.21
77192;BME280;66172;48.526;8.078;2024-01-30T08:12:37;101065.72;;;5.98;76.93
77192;BME280;66172;48.526;8.078;2024-01-30T08:15:04;101066.84;;;6.18;76.69
77192;BME280;66172;48.526;8.078;2024-01-30T08:17:30;101059.03;;;6.36;76.03
77192;BME280;66172;48.526;8.078;2024-01-30T08:19:56;101057.38;;;6.35;75.80
77192;BME280;66172;48.526;8.078;2024-01-30T08:22:22;101047.13;;;6.32;76.50
77192;BME280;66172;48.526;8.078;2024-01-30T08:24:48;101048.22;;;6.36;76.00
77192;BME280;66172;48.526;8.078;2024-01-30T08:27:14;101051.44;;;6.53;75.65
77192;BME280;66172;48.526;8.078;2024-01-30T08:29:39;101043.03;;;6.65;75.08
77192;BME280;66172;48.526;8.078;2024-01-30T08:32:06;101041.66;;;6.78;75.02
77192;BME280;66172;48.526;8.078;2024-01-30T08:34:32;101045.69;;;6.95;74.41
77192;BME280;66172;48.526;8.078;2024-01-30T08:36:58;101047.56;;;6.90;75.06
77192;BME280;66172;48.526;8.078;2024-01-30T08:39:24;101041.63;;;6.83;74.29
77192;BME280;66172;48.526;8.078;2024-01-30T08:41:50;101047.09;;;6.68;73.99
77192;BME280;66172;48.526;8.078;2024-01-30T08:44:16;101036.44;;;7.01;74.52
77192;BME280;66172;48.526;8.078;2024-01-30T08:46:44;101039.38;;;7.20;73.23
77192;BME280;66172;48.526;8.078;2024-01-30T08:49:11;101040.50;;;7.09;73.09
77192;BME280;66172;48.526;8.078;2024-01-30T08:51:39;101050.53;;;6.98;73.58
77192;BME280;66172;48.526;8.078;2024-01-30T08:54:05;101042.41;;;7.03;75.01
77192;BME280;66172;48.526;8.078;2024-01-30T08:56:31;101050.50;;;7.09;74.50
77192;BME280;66172;48.526;8.078;2024-01-30T08:58:57;101049.63;;;7.18;74.36
77192;BME280;66172;48.526;8.078;2024-01-30T09:01:23;101056.47;;;7.06;74.27
77192;BME280;66172;48.526;8.078;2024-01-30T09:03:48;101054.25;;;7.18;74.68
77192;BME280;66172;48.526;8.078;2024-01-30T09:06:14;101055.31;;;7.22;74.04
77192;BME280;66172;48.526;8.078;2024-01-30T09:08:40;101051.13;;;7.54;72.50
77192;BME280;66172;48.526;8.078;2024-01-30T09:11:11;101057.16;;;7.36;73.38
77192;BME280;66172;48.526;8.078;2024-01-30T09:13:37;101057.13;;;7.41;73.93
77192;BME280;66172;48.526;8.078;2024-01-30T09:16:04;101064.91;;;7.58;73.05
77192;BME280;66172;48.526;8.078;2024-01-30T09:18:30;101066.47;;;7.69;72.84
77192;BME280;66172;48.526;8.078;2024-01-30T09:20:56;101069.63;;;7.86;72.38
77192;BME280;66172;48.526;8.078;2024-01-30T09:23:21;101065.59;;;7.79;72.65
77192;BME280;66172;48.526;8.078;2024-01-30T09:25:48;101069.94;;;7.80;72.39
77192;BME280;66172;48.526;8.078;2024-01-30T09:28:14;101072.94;;;7.73;72.98
77192;BME280;66172;48.526;8.078;2024-01-30T09:30:39;101072.31;;;7.91;72.93
77192;BME280;66172;48.526;8.078;2024-01-30T09:33:06;101076.59;;;7.92;72.44
77192;BME280;66172;48.526;8.078;2024-01-30T09:35:32;101086.84;;;8.00;72.87
77192;BME280;66172;48.526;8.078;2024-01-30T09:37:59;101080.31;;;8.07;71.70
77192;BME280;66172;48.526;8.078;2024-01-30T09:40:25;101086.44;;;8.22;72.14
77192;BME280;66172;48.526;8.078;2024-01-30T09:42:51;101081.47;;;8.39;72.04
77192;BME280;66172;48.526;8.078;2024-01-30T09:45:18;101086.91;;;8.34;71.99
77192;BME280;66172;48.526;8.078;2024-01-30T09:47:45;101093.94;;;8.69;71.15
77192;BME280;66172;48.526;8.078;2024-01-30T09:50:13;101094.97;;;8.73;71.35
77192;BME280;66172;48.526;8.078;2024-01-30T09:52:40;101095.41;;;8.85;70.80
77192;BME280;66172;48.526;8.078;2024-01-30T09:55:07;101091.78;;;8.95;71.00
77192;BME280;66172;48.526;8.078;2024-01-30T09:57:34;101086.59;;;8.98;69.97
77192;BME280;66172;48.526;8.078;2024-01-30T10:00:00;101092.13;;;8.88;70.94
77192;BME280;66172;48.526;8.078;2024-01-30T10:02:26;101090.75;;;8.91;72.10
77192;BME280;66172;48.526;8.078;2024-01-30T10:04:52;101089.28;;;9.27;70.91
77192;BME280;66172;48.526;8.078;2024-01-30T10:07:18;101093.34;;;9.48;70.18
77192;BME280;66172;48.526;8.078;2024-01-30T10:09:45;101082.63;;;9.57;70.49
77192;BME280;66172;48.526;8.078;2024-01-30T10:12:12;101091.50;;;9.86;69.58
77192;BME280;66172;48.526;8.078;2024-01-30T10:14:42;101081.81;;;9.99;68.39
77192;BME280;66172;48.526;8.078;2024-01-30T10:17:09;101082.97;;;10.12;67.98
77192;BME280;66172;48.526;8.078;2024-01-30T10:19:36;101086.97;;;10.19;67.57
77192;BME280;66172;48.526;8.078;2024-01-30T10:22:03;101085.78;;;10.25;67.79
77192;BME280;66172;48.526;8.078;2024-01-30T10:24:29;101090.94;;;10.27;68.28
77192;BME280;66172;48.526;8.078;2024-01-30T10:26:55;101095.69;;;10.35;66.68
77192;BME280;66172;48.526;8.078;2024-01-30T10:29:21;101090.78;;;10.37;67.45
77192;BME280;66172;48.526;8.078;2024-01-30T10:32:04;101093.56;;;10.32;66.11
77192;BME280;66172;48.526;8.078;2024-01-30T10:34:31;101094.38;;;10.32;66.42
77192;BME280;66172;48.526;8.078;2024-01-30T10:37:07;101091.28;;;10.39;66.35
77192;BME280;66172;48.526;8.078;2024-01-30T10:39:37;101099.47;;;10.52;66.91
77192;BME280;66172;48.526;8.078;2024-01-30T10:42:05;101087.94;;;10.61;64.34
77192;BME280;66172;48.526;8.078;2024-01-30T10:44:44;101095.09;;;10.70;65.27
77192;BME280;66172;48.526;8.078;2024-01-30T10:47:12;101094.03;;;10.85;66.43
77192;BME280;66172;48.526;8.078;2024-01-30T10:49:41;101101.91;;;11.00;66.60
77192;BME280;66172;48.526;8.078;2024-01-30T10:52:13;101092.13;;;11.13;66.36
77192;BME280;66172;48.526;8.078;2024-01-30T10:54:40;101086.41;;;11.28;65.70
77192;BME280;66172;48.526;8.078;2024-01-30T10:57:06;101083.78;;;11.50;65.69
77192;BME280;66172;48.526;8.078;2024-01-30T10:59:33;101088.81;;;11.70;64.63
77192;BME280;66172;48.526;8.078;2024-01-30T11:01:59;101080.03;;;11.73;62.02
77192;BME280;66172;48.526;8.078;2024-01-30T11:04:25;101075.88;;;11.76;62.07
77192;BME280;66172;48.526;8.078;2024-01-30T11:06:52;101069.63;;;11.89;62.13
77192;BME280;66172;48.526;8.078;2024-01-30T11:09:18;101064.94;;;12.03;62.09
77192;BME280;66172;48.526;8.078;2024-01-30T11:11:49;101072.44;;;12.20;60.49
77192;BME280;66172;48.526;8.078;2024-01-30T11:14:14;101071.34;;;12.74;57.25
77192;BME280;66172;48.526;8.078;2024-01-30T11:16:40;101062.44;;;13.21;61.54
77192;BME280;66172;48.526;8.078;2024-01-30T11:19:10;101065.97;;;13.87;59.44
77192;BME280;66172;48.526;8.078;2024-01-30T11:21:41;101061.50;;;14.34;58.96
77192;BME280;66172;48.526;8.078;2024-01-30T11:24:07;101059.28;;;14.82;56.58
77192;BME280;66172;48.526;8.078;2024-01-30T11:26:33;101057.59;;;15.07;55.27
77192;BME280;66172;48.526;8.078;2024-01-30T11:29:03;101058.59;;;15.32;53.86
77192;BME280;66172;48.526;8.078;2024-01-30T11:31:30;101056.59;;;15.12;53.22
77192;BME280;66172;48.526;8.078;2024-01-30T11:33:56;101057.28;;;15.00;54.56
77192;BME280;66172;48.526;8.078;2024-01-30T11:36:26;101057.81;;;14.85;54.93
77192;BME280;66172;48.526;8.078;2024-01-30T11:38:53;101050.63;;;14.72;55.26
77192;BME280;66172;48.526;8.078;2024-01-30T11:41:19;101062.44;;;14.55;54.60
77192;BME280;66172;48.526;8.078;2024-01-30T11:43:55;101065.81;;;14.00;56.45
77192;BME280;66172;48.526;8.078;2024-01-30T11:46:20;101066.13;;;13.82;56.67
77192;BME280;66172;48.526;8.078;2024-01-30T11:48:46;101063.72;;;13.72;57.40
77192;BME280;66172;48.526;8.078;2024-01-30T11:51:13;101074.44;;;13.60;58.28
77192;BME280;66172;48.526;8.078;2024-01-30T11:53:39;101067.19;;;13.55;58.80
77192;BME280;66172;48.526;8.078;2024-01-30T11:56:08;101063.94;;;13.44;59.41
77192;BME280;66172;48.526;8.078;2024-01-30T11:58:34;101060.56;;;13.39;59.41
77192;BME280;66172;48.526;8.078;2024-01-30T12:01:00;101059.63;;;13.43;59.66
77192;BME280;66172;48.526;8.078;2024-01-30T12:03:26;101063.00;;;13.49;59.62
77192;BME280;66172;48.526;8.078;2024-01-30T12:05:56;101056.44;;;13.50;58.85
77192;BME280;66172;48.526;8.078;2024-01-30T12:08:23;101052.72;;;13.55;59.42
77192;BME280;66172;48.526;8.078;2024-01-30T12:10:56;101053.22;;;13.57;58.54
77192;BME280;66172;48.526;8.078;2024-01-30T12:13:23;101056.91;;;13.52;58.51
77192;BME280;66172;48.526;8.078;2024-01-30T12:15:49;101057.53;;;13.49;58.92
77192;BME280;66172;48.526;8.078;2024-01-30T12:18:21;101061.72;;;13.46;59.12
77192;BME280;66172;48.526;8.078;2024-01-30T12:20:57;101053.03;;;13.44;59.03
77192;BME280;66172;48.526;8.078;2024-01-30T12:23:24;101050.47;;;13.39;59.57
77192;BME280;66172;48.526;8.078;2024-01-30T12:25:52;101045.75;;;13.31;59.87
77192;BME280;66172;48.526;8.078;2024-01-30T12:28:19;101053.47;;;13.29;59.71
77192;BME280;66172;48.526;8.078;2024-01-30T12:30:45;101039.19;;;13.32;60.80
77192;BME280;66172;48.526;8.078;2024-01-30T12:33:17;101040.16;;;13.36;60.26
77192;BME280;66172;48.526;8.078;2024-01-30T12:35:47;101040.00;;;13.41;60.70
77192;BME280;66172;48.526;8.078;2024-01-30T12:38:14;101036.50;;;13.49;59.91
77192;BME280;66172;48.526;8.078;2024-01-30T12:40:40;101044.41;;;13.68;59.86
77192;BME280;66172;48.526;8.078;2024-01-30T12:43:06;101033.97;;;13.96;59.42
77192;BME280;66172;48.526;8.078;2024-01-30T12:45:32;101037.00;;;14.20;58.33
77192;BME280;66172;48.526;8.078;2024-01-30T12:47:58;101027.69;;;14.38;57.56
77192;BME280;66172;48.526;8.078;2024-01-30T12:50:24;101021.88;;;14.48;56.81
77192;BME280;66172;48.526;8.078;2024-01-30T12:52:50;101027.31;;;14.57;56.54
77192;BME280;66172;48.526;8.078;2024-01-30T12:55:16;101027.31;;;14.57;56.44